sensor_id;sensor_type;location;lat;lon;timestamp;P1;durP1;ratioP1;P2;durP2;ratioP2
48861;SDS011;34681;49.188;-0.374;2022-09-29T00:00:42;3.20;;;2.90;;
48861;SDS011;34681;49.188;-0.374;2022-09-29T00:03:08;2.27;;;2.07;;
48861;SDS011;34681;49.188;-0.374;2022-09-29T00:05:33;3.10;;;1.97;;
48861;SDS011;34681;49.188;-0.374;2022-09-29T00:07:59;2.10;;;1.60;;
48861;SDS011;34681;49.188;-0.374;2022-09-29T00:10:24;3.13;;;1.60;;
48861;SDS011;34681;49.188;-0.374;2022-09-29T00:12:50;2.03;;;1.60;;
48861;SDS011;34681;49.188;-0.374;2022-09-29T00:15:15;6.10;;;1.90;;
48861;SDS011;34681;49.188;-0.374;2022-09-29T00:17:41;2.87;;;1.93;;
48861;SDS011;34681;49.188;-0.374;2022-09-29T00:20:06;1.90;;;1.80;;
48861;SDS011;34681;49.188;-0.374;2022-09-29T00:22:33;1.70;;;1.60;;
48861;SDS011;34681;49.188;-0.374;2022-09-29T00:24:58;4.37;;;1.90;;
48861;SDS011;34681;49.188;-0.374;2022-09-29T00:27:24;2.00;;;1.90;;
48861;SDS011;34681;49.188;-0.374;2022-09-29T00:29:50;2.47;;;1.63;;
48861;SDS011;34681;49.188;-0.374;2022-09-29T00:32:15;2.27;;;2.07;;
48861;SDS011;34681;49.188;-0.374;2022-09-29T00:34:41;3.13;;;2.23;;
48861;SDS011;34681;49.188;-0.374;2022-09-29T00:37:06;3.90;;;2.23;;
48861;SDS011;34681;49.188;-0.374;2022-09-29T00:39:31;2.23;;;2.10;;
48861;SDS011;34681;49.188;-0.374;2022-09-29T00:41:57;2.20;;;2.10;;
48861;SDS011;34681;49.188;-0.374;2022-09-29T00:47:08;2.13;;;1.80;;
48861;SDS011;34681;49.188;-0.374;2022-09-29T00:49:42;1.93;;;1.83;;
48861;SDS011;34681;49.188;-0.374;2022-09-29T00:52:33;2.97;;;1.73;;
48861;SDS011;34681;49.188;-0.374;2022-09-29T00:55:05;2.13;;;2.00;;
48861;SDS011;34681;49.188;-0.374;2022-09-29T00:57:36;3.90;;;2.00;;
48861;SDS011;34681;49.188;-0.374;2022-09-29T01:00:13;2.90;;;2.17;;
48861;SDS011;34681;49.188;-0.374;2022-09-29T01:02:42;2.83;;;2.63;;
48861;SDS011;34681;49.188;-0.374;2022-09-29T01:05:16;2.30;;;2.20;;
48861;SDS011;34681;49.188;-0.374;2022-09-29T01:07:45;2.43;;;2.30;;
48861;SDS011;34681;49.188;-0.374;2022-09-29T01:10:12;2.47;;;2.27;;
48861;SDS011;34681;49.188;-0.374;2022-09-29T01:12:41;2.90;;;2.70;;
48861;SDS011;34681;49.188;-0.374;2022-09-29T01:15:09;3.57;;;2.70;;
48861;SDS011;34681;49.188;-0.374;2022-09-29T01:17:35;3.73;;;2.77;;
48861;SDS011;34681;49.188;-0.374;2022-09-29T01:33:54;3.57;;;3.10;;
48861;SDS011;34681;49.188;-0.374;2022-09-29T01:44:11;4.00;;;3.00;;
48861;SDS011;34681;49.188;-0.374;2022-09-29T01:49:30;2.80;;;2.60;;
48861;SDS011;34681;49.188;-0.374;2022-09-29T01:54:54;5.47;;;2.27;;
48861;SDS011;34681;49.188;-0.374;2022-09-29T01:57:26;4.20;;;3.07;;
48861;SDS011;34681;49.188;-0.374;2022-09-29T02:00:05;5.27;;;3.80;;
48861;SDS011;34681;49.188;-0.374;2022-09-29T02:02:36;3.33;;;3.00;;
48861;SDS011;34681;49.188;-0.374;2022-09-29T02:05:24;3.63;;;2.90;;
48861;SDS011;34681;49.188;-0.374;2022-09-29T02:07:59;12.10;;;3.40;;
48861;SDS011;34681;49.188;-0.374;2022-09-29T02:10:36;3.20;;;2.83;;
48861;SDS011;34681;49.188;-0.374;2022-09-29T02:13:06;2.43;;;2.33;;
48861;SDS011;34681;49.188;-0.374;2022-09-29T02:15:36;3.80;;;2.93;;
48861;SDS011;34681;49.188;-0.374;2022-09-29T02:18:12;2.80;;;2.60;;
48861;SDS011;34681;49.188;-0.374;2022-09-29T02:20:45;2.97;;;2.77;;
48861;SDS011;34681;49.188;-0.374;2022-09-29T02:23:11;3.20;;;2.50;;
48861;SDS011;34681;49.188;-0.374;2022-09-29T02:25:36;2.77;;;2.63;;
48861;SDS011;34681;49.188;-0.374;2022-09-29T02:28:03;3.20;;;2.70;;
48861;SDS011;34681;49.188;-0.374;2022-09-29T02:30:29;3.87;;;2.30;;
48861;SDS011;34681;49.188;-0.374;2022-09-29T02:32:55;3.87;;;2.60;;
48861;SDS011;34681;49.188;-0.374;2022-09-29T02:35:20;2.60;;;2.40;;
48861;SDS011;34681;49.188;-0.374;2022-09-29T02:40:43;4.40;;;2.97;;
48861;SDS011;34681;49.188;-0.374;2022-09-29T02:48:45;2.90;;;2.70;;
48861;SDS011;34681;49.188;-0.374;2022-09-29T02:51:25;2.97;;;2.77;;
48861;SDS011;34681;49.188;-0.374;2022-09-29T02:56:49;3.23;;;2.93;;
48861;SDS011;34681;49.188;-0.374;2022-09-29T02:59:34;3.77;;;2.63;;
48861;SDS011;34681;49.188;-0.374;2022-09-29T03:02:09;4.87;;;2.57;;
48861;SDS011;34681;49.188;-0.374;2022-09-29T03:04:35;4.53;;;3.03;;
48861;SDS011;34681;49.188;-0.374;2022-09-29T03:07:00;2.70;;;2.50;;
48861;SDS011;34681;49.188;-0.374;2022-09-29T03:09:25;7.00;;;3.27;;
48861;SDS011;34681;49.188;-0.374;2022-09-29T03:11:52;3.57;;;3.20;;
48861;SDS011;34681;49.188;-0.374;2022-09-29T03:14:17;3.20;;;2.80;;
48861;SDS011;34681;49.188;-0.374;2022-09-29T03:16:43;3.07;;;2.77;;
48861;SDS011;34681;49.188;-0.374;2022-09-29T03:19:08;3.57;;;3.27;;
48861;SDS011;34681;49.188;-0.374;2022-09-29T03:21:33;3.93;;;2.90;;
48861;SDS011;34681;49.188;-0.374;2022-09-29T03:23:59;2.77;;;2.53;;
48861;SDS011;34681;49.188;-0.374;2022-09-29T03:26:25;3.57;;;3.27;;
48861;SDS011;34681;49.188;-0.374;2022-09-29T03:28:51;5.20;;;3.40;;
48861;SDS011;34681;49.188;-0.374;2022-09-29T03:31:16;3.73;;;3.27;;
48861;SDS011;34681;49.188;-0.374;2022-09-29T03:33:42;3.60;;;3.40;;
48861;SDS011;34681;49.188;-0.374;2022-09-29T03:36:08;3.40;;;3.20;;
48861;SDS011;34681;49.188;-0.374;2022-09-29T03:38:33;3.50;;;3.20;;
48861;SDS011;34681;49.188;-0.374;2022-09-29T03:40:59;4.47;;;3.67;;
48861;SDS011;34681;49.188;-0.374;2022-09-29T03:43:26;3.43;;;3.23;;
48861;SDS011;34681;49.188;-0.374;2022-09-29T03:45:52;3.20;;;3.00;;
48861;SDS011;34681;49.188;-0.374;2022-09-29T03:48:19;3.53;;;3.30;;
48861;SDS011;34681;49.188;-0.374;2022-09-29T03:50:46;3.07;;;2.87;;
48861;SDS011;34681;49.188;-0.374;2022-09-29T03:53:13;5.30;;;2.90;;
48861;SDS011;34681;49.188;-0.374;2022-09-29T03:55:39;2.63;;;2.53;;
48861;SDS011;34681;49.188;-0.374;2022-09-29T03:58:05;2.77;;;2.57;;
48861;SDS011;34681;49.188;-0.374;2022-09-29T04:00:31;2.80;;;2.60;;
48861;SDS011;34681;49.188;-0.374;2022-09-29T04:02:56;3.53;;;3.10;;
48861;SDS011;34681;49.188;-0.374;2022-09-29T04:05:22;3.97;;;3.67;;
48861;SDS011;34681;49.188;-0.374;2022-09-29T04:07:47;2.80;;;2.60;;
48861;SDS011;34681;49.188;-0.374;2022-09-29T04:10:13;2.80;;;2.60;;
48861;SDS011;34681;49.188;-0.374;2022-09-29T04:12:39;3.10;;;2.43;;
48861;SDS011;34681;49.188;-0.374;2022-09-29T04:15:04;3.10;;;2.40;;
48861;SDS011;34681;49.188;-0.374;2022-09-29T04:17:30;2.50;;;2.30;;
48861;SDS011;34681;49.188;-0.374;2022-09-29T04:19:56;3.13;;;2.93;;
48861;SDS011;34681;49.188;-0.374;2022-09-29T04:22:21;5.03;;;2.80;;
48861;SDS011;34681;49.188;-0.374;2022-09-29T04:24:47;3.00;;;2.60;;
48861;SDS011;34681;49.188;-0.374;2022-09-29T04:27:13;3.30;;;3.00;;
48861;SDS011;34681;49.188;-0.374;2022-09-29T04:29:39;3.97;;;3.67;;
48861;SDS011;34681;49.188;-0.374;2022-09-29T04:32:05;3.90;;;2.83;;
48861;SDS011;34681;49.188;-0.374;2022-09-29T04:34:30;3.67;;;3.37;;
48861;SDS011;34681;49.188;-0.374;2022-09-29T04:36:56;5.87;;;3.70;;
48861;SDS011;34681;49.188;-0.374;2022-09-29T04:39:22;4.10;;;3.80;;
48861;SDS011;34681;49.188;-0.374;2022-09-29T04:41:47;4.20;;;3.90;;
48861;SDS011;34681;49.188;-0.374;2022-09-29T04:44:13;3.70;;;3.50;;
48861;SDS011;34681;49.188;-0.374;2022-09-29T04:46:38;3.93;;;3.67;;
48861;SDS011;34681;49.188;-0.374;2022-09-29T04:49:03;4.13;;;3.80;;
48861;SDS011;34681;49.188;-0.374;2022-09-29T04:51:29;4.27;;;3.53;;
48861;SDS011;34681;49.188;-0.374;2022-09-29T04:53:54;3.73;;;3.40;;
48861;SDS011;34681;49.188;-0.374;2022-09-29T04:56:21;3.53;;;3.33;;
48861;SDS011;34681;49.188;-0.374;2022-09-29T04:58:46;3.20;;;3.00;;
48861;SDS011;34681;49.188;-0.374;2022-09-29T05:01:12;3.10;;;2.80;;
48861;SDS011;34681;49.188;-0.374;2022-09-29T05:03:37;3.03;;;2.20;;
48861;SDS011;34681;49.188;-0.374;2022-09-29T05:06:03;2.37;;;2.17;;
48861;SDS011;34681;49.188;-0.374;2022-09-29T05:08:29;1.80;;;1.70;;
48861;SDS011;34681;49.188;-0.374;2022-09-29T05:10:54;2.27;;;2.00;;
48861;SDS011;34681;49.188;-0.374;2022-09-29T05:13:19;2.03;;;1.83;;
48861;SDS011;34681;49.188;-0.374;2022-09-29T05:15:45;2.63;;;1.80;;
48861;SDS011;34681;49.188;-0.374;2022-09-29T05:18:10;2.23;;;1.90;;
48861;SDS011;34681;49.188;-0.374;2022-09-29T05:20:35;1.80;;;1.70;;
48861;SDS011;34681;49.188;-0.374;2022-09-29T05:23:01;4.53;;;1.70;;
48861;SDS011;34681;49.188;-0.374;2022-09-29T05:25:26;1.80;;;1.70;;
48861;SDS011;34681;49.188;-0.374;2022-09-29T05:27:52;1.87;;;1.60;;
48861;SDS011;34681;49.188;-0.374;2022-09-29T05:30:18;1.80;;;1.70;;
48861;SDS011;34681;49.188;-0.374;2022-09-29T05:32:43;1.80;;;1.70;;
48861;SDS011;34681;49.188;-0.374;2022-09-29T05:35:09;2.17;;;2.07;;
48861;SDS011;34681;49.188;-0.374;2022-09-29T05:37:35;2.00;;;1.90;;
48861;SDS011;34681;49.188;-0.374;2022-09-29T05:40:00;2.10;;;1.90;;
48861;SDS011;34681;49.188;-0.374;2022-09-29T05:42:26;2.83;;;1.90;;
48861;SDS011;34681;49.188;-0.374;2022-09-29T05:44:51;3.87;;;1.77;;
48861;SDS011;34681;49.188;-0.374;2022-09-29T05:47:17;2.63;;;1.70;;
48861;SDS011;34681;49.188;-0.374;2022-09-29T05:49:42;1.87;;;1.50;;
48861;SDS011;34681;49.188;-0.374;2022-09-29T05:52:08;1.60;;;1.50;;
48861;SDS011;34681;49.188;-0.374;2022-09-29T05:54:33;1.73;;;1.63;;
48861;SDS011;34681;49.188;-0.374;2022-09-29T05:56:59;1.77;;;1.60;;
48861;SDS011;34681;49.188;-0.374;2022-09-29T05:59:24;2.73;;;1.97;;
48861;SDS011;34681;49.188;-0.374;2022-09-29T06:01:49;1.70;;;1.60;;
48861;SDS011;34681;49.188;-0.374;2022-09-29T06:04:15;1.60;;;1.50;;
48861;SDS011;34681;49.188;-0.374;2022-09-29T06:06:41;1.70;;;1.60;;
48861;SDS011;34681;49.188;-0.374;2022-09-29T06:09:07;1.57;;;1.47;;
48861;SDS011;34681;49.188;-0.374;2022-09-29T06:11:32;2.03;;;1.83;;
48861;SDS011;34681;49.188;-0.374;2022-09-29T06:13:58;1.90;;;1.80;;
48861;SDS011;34681;49.188;-0.374;2022-09-29T06:16:25;1.60;;;1.50;;
48861;SDS011;34681;49.188;-0.374;2022-09-29T06:18:52;1.30;;;1.20;;
48861;SDS011;34681;49.188;-0.374;2022-09-29T06:21:19;1.47;;;1.37;;
48861;SDS011;34681;49.188;-0.374;2022-09-29T06:23:47;2.00;;;1.90;;
48861;SDS011;34681;49.188;-0.374;2022-09-29T06:26:14;2.33;;;1.60;;
48861;SDS011;34681;49.188;-0.374;2022-09-29T06:28:41;1.67;;;1.57;;
48861;SDS011;34681;49.188;-0.374;2022-09-29T06:31:07;1.50;;;1.40;;
48861;SDS011;34681;49.188;-0.374;2022-09-29T06:33:35;1.50;;;1.40;;
48861;SDS011;34681;49.188;-0.374;2022-09-29T06:36:07;4.40;;;1.90;;
48861;SDS011;34681;49.188;-0.374;2022-09-29T06:38:55;2.17;;;1.40;;
48861;SDS011;34681;49.188;-0.374;2022-09-29T06:41:21;1.60;;;1.50;;
48861;SDS011;34681;49.188;-0.374;2022-09-29T06:43:47;1.60;;;1.50;;
48861;SDS011;34681;49.188;-0.374;2022-09-29T06:46:15;1.90;;;1.70;;
48861;SDS011;34681;49.188;-0.374;2022-09-29T06:48:40;1.77;;;1.67;;
48861;SDS011;34681;49.188;-0.374;2022-09-29T06:51:06;2.20;;;2.07;;
48861;SDS011;34681;49.188;-0.374;2022-09-29T06:53:32;1.90;;;1.80;;
48861;SDS011;34681;49.188;-0.374;2022-09-29T06:55:57;2.17;;;2.07;;
48861;SDS011;34681;49.188;-0.374;2022-09-29T06:58:25;4.87;;;1.97;;
48861;SDS011;34681;49.188;-0.374;2022-09-29T07:00:51;2.30;;;2.20;;
48861;SDS011;34681;49.188;-0.374;2022-09-29T07:03:16;2.40;;;2.20;;
48861;SDS011;34681;49.188;-0.374;2022-09-29T07:05:42;3.77;;;1.70;;
48861;SDS011;34681;49.188;-0.374;2022-09-29T07:08:08;1.70;;;1.60;;
48861;SDS011;34681;49.188;-0.374;2022-09-29T07:10:34;1.73;;;1.63;;
48861;SDS011;34681;49.188;-0.374;2022-09-29T07:12:59;2.23;;;1.60;;
48861;SDS011;34681;49.188;-0.374;2022-09-29T07:15:25;1.90;;;1.80;;
48861;SDS011;34681;49.188;-0.374;2022-09-29T07:17:55;2.10;;;1.90;;
48861;SDS011;34681;49.188;-0.374;2022-09-29T07:20:22;2.00;;;1.73;;
48861;SDS011;34681;49.188;-0.374;2022-09-29T07:22:47;2.17;;;1.67;;
48861;SDS011;34681;49.188;-0.374;2022-09-29T07:25:13;1.60;;;1.50;;
48861;SDS011;34681;49.188;-0.374;2022-09-29T07:27:38;2.30;;;2.20;;
48861;SDS011;34681;49.188;-0.374;2022-09-29T07:30:04;1.73;;;1.63;;
48861;SDS011;34681;49.188;-0.374;2022-09-29T07:32:29;1.67;;;1.57;;
48861;SDS011;34681;49.188;-0.374;2022-09-29T07:34:56;2.33;;;1.70;;
48861;SDS011;34681;49.188;-0.374;2022-09-29T07:37:22;1.90;;;1.80;;
48861;SDS011;34681;49.188;-0.374;2022-09-29T07:39:49;2.50;;;2.13;;
48861;SDS011;34681;49.188;-0.374;2022-09-29T07:42:14;1.97;;;1.87;;
48861;SDS011;34681;49.188;-0.374;2022-09-29T07:44:42;2.40;;;2.20;;
48861;SDS011;34681;49.188;-0.374;2022-09-29T07:47:07;2.10;;;2.00;;
48861;SDS011;34681;49.188;-0.374;2022-09-29T07:49:33;1.90;;;1.70;;
48861;SDS011;34681;49.188;-0.374;2022-09-29T07:51:58;1.77;;;1.67;;
48861;SDS011;34681;49.188;-0.374;2022-09-29T07:54:24;2.60;;;2.50;;
48861;SDS011;34681;49.188;-0.374;2022-09-29T07:56:49;3.20;;;2.40;;
48861;SDS011;34681;49.188;-0.374;2022-09-29T07:59:15;3.17;;;2.93;;
48861;SDS011;34681;49.188;-0.374;2022-09-29T08:01:40;2.43;;;2.23;;
48861;SDS011;34681;49.188;-0.374;2022-09-29T08:04:05;1.50;;;1.40;;
48861;SDS011;34681;49.188;-0.374;2022-09-29T08:06:31;3.20;;;2.00;;
48861;SDS011;34681;49.188;-0.374;2022-09-29T08:08:58;2.10;;;2.00;;
48861;SDS011;34681;49.188;-0.374;2022-09-29T08:11:24;4.83;;;4.40;;
48861;SDS011;34681;49.188;-0.374;2022-09-29T08:13:50;4.30;;;4.00;;
48861;SDS011;34681;49.188;-0.374;2022-09-29T08:16:19;4.30;;;4.00;;
48861;SDS011;34681;49.188;-0.374;2022-09-29T08:18:45;5.53;;;5.13;;
48861;SDS011;34681;49.188;-0.374;2022-09-29T08:21:11;4.87;;;4.53;;
48861;SDS011;34681;49.188;-0.374;2022-09-29T08:23:38;5.57;;;4.13;;
48861;SDS011;34681;49.188;-0.374;2022-09-29T08:26:06;7.57;;;4.33;;
48861;SDS011;34681;49.188;-0.374;2022-09-29T08:28:36;4.10;;;3.80;;
48861;SDS011;34681;49.188;-0.374;2022-09-29T08:31:03;4.27;;;3.30;;
48861;SDS011;34681;49.188;-0.374;2022-09-29T08:33:34;2.97;;;2.77;;
48861;SDS011;34681;49.188;-0.374;2022-09-29T08:36:00;1.90;;;1.80;;
48861;SDS011;34681;49.188;-0.374;2022-09-29T08:38:29;2.53;;;2.00;;
48861;SDS011;34681;49.188;-0.374;2022-09-29T08:40:55;3.07;;;1.60;;
48861;SDS011;34681;49.188;-0.374;2022-09-29T08:43:22;1.83;;;1.73;;
48861;SDS011;34681;49.188;-0.374;2022-09-29T08:46:00;2.03;;;1.83;;
48861;SDS011;34681;49.188;-0.374;2022-09-29T08:48:35;1.87;;;1.50;;
48861;SDS011;34681;49.188;-0.374;2022-09-29T08:51:11;2.20;;;2.00;;
48861;SDS011;34681;49.188;-0.374;2022-09-29T08:53:53;1.20;;;1.10;;
48861;SDS011;34681;49.188;-0.374;2022-09-29T08:56:21;4.73;;;1.40;;
48861;SDS011;34681;49.188;-0.374;2022-09-29T08:58:48;1.50;;;1.40;;
48861;SDS011;34681;49.188;-0.374;2022-09-29T09:09:20;2.40;;;1.10;;
48861;SDS011;34681;49.188;-0.374;2022-09-29T09:11:59;3.40;;;1.50;;
48861;SDS011;34681;49.188;-0.374;2022-09-29T09:23:05;1.20;;;1.10;;
48861;SDS011;34681;49.188;-0.374;2022-09-29T09:25:56;2.10;;;1.20;;
48861;SDS011;34681;49.188;-0.374;2022-09-29T09:31:38;1.20;;;1.20;;
48861;SDS011;34681;49.188;-0.374;2022-09-29T09:33:45;1.40;;;1.30;;
48861;SDS011;34681;49.188;-0.374;2022-09-29T09:36:40;1.10;;;1.10;;
48861;SDS011;34681;49.188;-0.374;2022-09-29T09:41:55;4.37;;;1.23;;
48861;SDS011;34681;49.188;-0.374;2022-09-29T09:44:28;2.53;;;1.00;;
48861;SDS011;34681;49.188;-0.374;2022-09-29T09:46:59;2.00;;;1.27;;
48861;SDS011;34681;49.188;-0.374;2022-09-29T09:52:45;3.33;;;1.03;;
48861;SDS011;34681;49.188;-0.374;2022-09-29T09:55:16;4.63;;;1.57;;
48861;SDS011;34681;49.188;-0.374;2022-09-29T09:57:50;1.87;;;1.00;;
48861;SDS011;34681;49.188;-0.374;2022-09-29T10:00:42;1.20;;;1.00;;
48861;SDS011;34681;49.188;-0.374;2022-09-29T10:03:11;1.57;;;0.80;;
48861;SDS011;34681;49.188;-0.374;2022-09-29T10:05:41;0.90;;;0.90;;
48861;SDS011;34681;49.188;-0.374;2022-09-29T10:08:14;0.80;;;0.80;;
48861;SDS011;34681;49.188;-0.374;2022-09-29T10:10:53;0.93;;;0.93;;
48861;SDS011;34681;49.188;-0.374;2022-09-29T10:13:19;1.23;;;0.90;;
48861;SDS011;34681;49.188;-0.374;2022-09-29T10:18:36;1.23;;;0.87;;
48861;SDS011;34681;49.188;-0.374;2022-09-29T10:21:17;1.00;;;0.90;;
48861;SDS011;34681;49.188;-0.374;2022-09-29T10:23:50;2.40;;;0.93;;
48861;SDS011;34681;49.188;-0.374;2022-09-29T10:26:17;1.10;;;0.90;;
48861;SDS011;34681;49.188;-0.374;2022-09-29T10:28:51;0.90;;;0.90;;
48861;SDS011;34681;49.188;-0.374;2022-09-29T10:34:03;0.80;;;0.80;;
48861;SDS011;34681;49.188;-0.374;2022-09-29T10:37:41;0.80;;;0.80;;
48861;SDS011;34681;49.188;-0.374;2022-09-29T10:39:49;0.80;;;0.80;;
48861;SDS011;34681;49.188;-0.374;2022-09-29T10:42:31;0.80;;;0.80;;
48861;SDS011;34681;49.188;-0.374;2022-09-29T10:45:00;0.93;;;0.93;;
48861;SDS011;34681;49.188;-0.374;2022-09-29T10:47:47;1.03;;;1.00;;
48861;SDS011;34681;49.188;-0.374;2022-09-29T10:50:31;1.63;;;0.90;;
48861;SDS011;34681;49.188;-0.374;2022-09-29T10:53:21;0.90;;;0.90;;
48861;SDS011;34681;49.188;-0.374;2022-09-29T10:55:49;1.00;;;1.00;;
48861;SDS011;34681;49.188;-0.374;2022-09-29T10:58:27;1.00;;;1.00;;
48861;SDS011;34681;49.188;-0.374;2022-09-29T11:03:52;0.90;;;0.90;;
48861;SDS011;34681;49.188;-0.374;2022-09-29T11:06:28;2.10;;;1.07;;
48861;SDS011;34681;49.188;-0.374;2022-09-29T11:11:53;0.90;;;0.90;;
48861;SDS011;34681;49.188;-0.374;2022-09-29T11:14:38;1.10;;;1.00;;
48861;SDS011;34681;49.188;-0.374;2022-09-29T11:19:59;0.80;;;0.80;;
48861;SDS011;34681;49.188;-0.374;2022-09-29T11:28:13;1.20;;;1.00;;
48861;SDS011;34681;49.188;-0.374;2022-09-29T11:37:12;1.10;;;1.10;;
48861;SDS011;34681;49.188;-0.374;2022-09-29T11:39:54;1.30;;;1.20;;
48861;SDS011;34681;49.188;-0.374;2022-09-29T11:44:59;1.00;;;0.90;;
48861;SDS011;34681;49.188;-0.374;2022-09-29T12:01:43;0.90;;;0.80;;
48861;SDS011;34681;49.188;-0.374;2022-09-29T12:04:32;0.70;;;0.70;;
48861;SDS011;34681;49.188;-0.374;2022-09-29T12:07:12;0.70;;;0.70;;
48861;SDS011;34681;49.188;-0.374;2022-09-29T12:09:56;0.97;;;0.70;;
48861;SDS011;34681;49.188;-0.374;2022-09-29T12:18:29;0.70;;;0.70;;
48861;SDS011;34681;49.188;-0.374;2022-09-29T12:21:10;1.53;;;0.90;;
48861;SDS011;34681;49.188;-0.374;2022-09-29T12:23:38;1.23;;;1.10;;
48861;SDS011;34681;49.188;-0.374;2022-09-29T12:26:09;2.27;;;1.13;;
48861;SDS011;34681;49.188;-0.374;2022-09-29T12:28:40;1.03;;;1.03;;
48861;SDS011;34681;49.188;-0.374;2022-09-29T12:31:20;1.17;;;1.07;;
48861;SDS011;34681;49.188;-0.374;2022-09-29T12:36:59;1.20;;;1.10;;
48861;SDS011;34681;49.188;-0.374;2022-09-29T12:39:36;0.90;;;0.90;;
48861;SDS011;34681;49.188;-0.374;2022-09-29T12:50:21;1.00;;;1.00;;
48861;SDS011;34681;49.188;-0.374;2022-09-29T12:55:39;1.47;;;1.00;;
48861;SDS011;34681;49.188;-0.374;2022-09-29T12:58:14;0.90;;;0.90;;
48861;SDS011;34681;49.188;-0.374;2022-09-29T13:00:48;1.30;;;0.97;;
48861;SDS011;34681;49.188;-0.374;2022-09-29T13:03:42;1.10;;;1.00;;
48861;SDS011;34681;49.188;-0.374;2022-09-29T13:07:02;1.10;;;1.10;;
48861;SDS011;34681;49.188;-0.374;2022-09-29T13:09:44;3.13;;;1.10;;
48861;SDS011;34681;49.188;-0.374;2022-09-29T13:12:26;1.33;;;0.90;;
48861;SDS011;34681;49.188;-0.374;2022-09-29T13:18:03;1.83;;;0.90;;
48861;SDS011;34681;49.188;-0.374;2022-09-29T13:20:45;1.03;;;0.93;;
48861;SDS011;34681;49.188;-0.374;2022-09-29T13:23:18;1.00;;;0.90;;
48861;SDS011;34681;49.188;-0.374;2022-09-29T13:26:00;1.03;;;0.90;;
48861;SDS011;34681;49.188;-0.374;2022-09-29T13:28:48;1.00;;;0.90;;
48861;SDS011;34681;49.188;-0.374;2022-09-29T13:31:22;1.40;;;1.10;;
48861;SDS011;34681;49.188;-0.374;2022-09-29T13:33:51;0.93;;;0.93;;
48861;SDS011;34681;49.188;-0.374;2022-09-29T13:36:26;1.13;;;0.83;;
48861;SDS011;34681;49.188;-0.374;2022-09-29T13:39:00;0.80;;;0.80;;
48861;SDS011;34681;49.188;-0.374;2022-09-29T13:49:14;1.13;;;0.90;;
48861;SDS011;34681;49.188;-0.374;2022-09-29T13:54:34;1.13;;;0.93;;
48861;SDS011;34681;49.188;-0.374;2022-09-29T13:59:32;0.90;;;0.90;;
48861;SDS011;34681;49.188;-0.374;2022-09-29T14:01:58;1.53;;;1.03;;
48861;SDS011;34681;49.188;-0.374;2022-09-29T14:04:44;1.27;;;0.90;;
48861;SDS011;34681;49.188;-0.374;2022-09-29T14:10:05;1.50;;;1.40;;
48861;SDS011;34681;49.188;-0.374;2022-09-29T14:12:43;1.37;;;0.90;;
48861;SDS011;34681;49.188;-0.374;2022-09-29T14:15:10;1.53;;;0.90;;
48861;SDS011;34681;49.188;-0.374;2022-09-29T14:17:42;0.90;;;0.90;;
48861;SDS011;34681;49.188;-0.374;2022-09-29T14:20:18;8.13;;;0.90;;
48861;SDS011;34681;49.188;-0.374;2022-09-29T14:23:08;1.50;;;1.17;;
48861;SDS011;34681;49.188;-0.374;2022-09-29T14:28:13;1.97;;;1.10;;
48861;SDS011;34681;49.188;-0.374;2022-09-29T14:30:47;1.00;;;0.90;;
48861;SDS011;34681;49.188;-0.374;2022-09-29T14:38:31;2.63;;;1.00;;
48861;SDS011;34681;49.188;-0.374;2022-09-29T14:41:02;0.87;;;0.87;;
48861;SDS011;34681;49.188;-0.374;2022-09-29T14:46:23;1.60;;;1.40;;
48861;SDS011;34681;49.188;-0.374;2022-09-29T14:49:52;0.90;;;0.90;;
48861;SDS011;34681;49.188;-0.374;2022-09-29T15:01:12;0.80;;;0.80;;
48861;SDS011;34681;49.188;-0.374;2022-09-29T15:03:49;1.33;;;1.00;;
48861;SDS011;34681;49.188;-0.374;2022-09-29T15:06:18;3.23;;;0.90;;
48861;SDS011;34681;49.188;-0.374;2022-09-29T15:08:52;1.13;;;1.00;;
48861;SDS011;34681;49.188;-0.374;2022-09-29T15:11:23;1.20;;;0.97;;
48861;SDS011;34681;49.188;-0.374;2022-09-29T15:13:51;1.00;;;1.00;;
48861;SDS011;34681;49.188;-0.374;2022-09-29T15:19:17;0.90;;;0.90;;
48861;SDS011;34681;49.188;-0.374;2022-09-29T15:25:24;0.90;;;0.90;;
48861;SDS011;34681;49.188;-0.374;2022-09-29T15:27:55;0.90;;;0.90;;
48861;SDS011;34681;49.188;-0.374;2022-09-29T15:30:24;1.13;;;0.90;;
48861;SDS011;34681;49.188;-0.374;2022-09-29T15:32:50;1.00;;;1.00;;
48861;SDS011;34681;49.188;-0.374;2022-09-29T15:35:22;0.90;;;0.90;;
48861;SDS011;34681;49.188;-0.374;2022-09-29T15:37:53;1.27;;;1.07;;
48861;SDS011;34681;49.188;-0.374;2022-09-29T15:40:23;1.17;;;1.10;;
48861;SDS011;34681;49.188;-0.374;2022-09-29T15:42:50;1.13;;;1.00;;
48861;SDS011;34681;49.188;-0.374;2022-09-29T15:45:20;1.23;;;1.13;;
48861;SDS011;34681;49.188;-0.374;2022-09-29T15:47:48;1.27;;;0.80;;
48861;SDS011;34681;49.188;-0.374;2022-09-29T15:50:25;0.90;;;0.90;;
48861;SDS011;34681;49.188;-0.374;2022-09-29T15:52:51;1.10;;;0.80;;
48861;SDS011;34681;49.188;-0.374;2022-09-29T15:55:18;0.80;;;0.80;;
48861;SDS011;34681;49.188;-0.374;2022-09-29T15:57:47;1.30;;;1.20;;
48861;SDS011;34681;49.188;-0.374;2022-09-29T16:03:33;1.30;;;1.30;;
48861;SDS011;34681;49.188;-0.374;2022-09-29T16:05:37;1.63;;;0.90;;
48861;SDS011;34681;49.188;-0.374;2022-09-29T16:08:11;1.60;;;1.50;;
48861;SDS011;34681;49.188;-0.374;2022-09-29T16:10:50;1.93;;;1.47;;
48861;SDS011;34681;49.188;-0.374;2022-09-29T16:13:29;1.50;;;1.37;;
48861;SDS011;34681;49.188;-0.374;2022-09-29T16:15:58;1.57;;;1.30;;
48861;SDS011;34681;49.188;-0.374;2022-09-29T16:18:45;1.57;;;1.27;;
48861;SDS011;34681;49.188;-0.374;2022-09-29T16:21:17;1.63;;;1.40;;
48861;SDS011;34681;49.188;-0.374;2022-09-29T16:24:07;1.50;;;1.40;;
48861;SDS011;34681;49.188;-0.374;2022-09-29T16:26:40;1.20;;;1.10;;
48861;SDS011;34681;49.188;-0.374;2022-09-29T16:31:33;1.37;;;1.27;;
48861;SDS011;34681;49.188;-0.374;2022-09-29T16:34:00;1.03;;;1.03;;
48861;SDS011;34681;49.188;-0.374;2022-09-29T16:36:30;1.10;;;1.00;;
48861;SDS011;34681;49.188;-0.374;2022-09-29T16:39:03;1.30;;;1.20;;
48861;SDS011;34681;49.188;-0.374;2022-09-29T16:41:31;1.30;;;1.03;;
48861;SDS011;34681;49.188;-0.374;2022-09-29T16:46:33;1.13;;;1.00;;
48861;SDS011;34681;49.188;-0.374;2022-09-29T16:49:11;1.50;;;1.10;;
48861;SDS011;34681;49.188;-0.374;2022-09-29T16:51:42;1.10;;;1.10;;
48861;SDS011;34681;49.188;-0.374;2022-09-29T16:54:18;3.47;;;1.23;;
48861;SDS011;34681;49.188;-0.374;2022-09-29T16:56:48;2.07;;;1.30;;
48861;SDS011;34681;49.188;-0.374;2022-09-29T16:59:32;1.30;;;1.20;;
48861;SDS011;34681;49.188;-0.374;2022-09-29T17:01:58;1.33;;;1.30;;
48861;SDS011;34681;49.188;-0.374;2022-09-29T17:04:23;0.93;;;0.93;;
48861;SDS011;34681;49.188;-0.374;2022-09-29T17:06:49;1.90;;;1.20;;
48861;SDS011;34681;49.188;-0.374;2022-09-29T17:09:18;1.73;;;1.63;;
48861;SDS011;34681;49.188;-0.374;2022-09-29T17:11:51;4.30;;;1.50;;
48861;SDS011;34681;49.188;-0.374;2022-09-29T17:14:16;1.33;;;1.10;;
48861;SDS011;34681;49.188;-0.374;2022-09-29T17:16:48;1.63;;;1.10;;
48861;SDS011;34681;49.188;-0.374;2022-09-29T17:19:16;1.10;;;1.00;;
48861;SDS011;34681;49.188;-0.374;2022-09-29T17:21:43;1.30;;;1.20;;
48861;SDS011;34681;49.188;-0.374;2022-09-29T17:24:09;1.30;;;1.20;;
48861;SDS011;34681;49.188;-0.374;2022-09-29T17:26:35;2.10;;;1.17;;
48861;SDS011;34681;49.188;-0.374;2022-09-29T17:29:21;2.20;;;1.30;;
48861;SDS011;34681;49.188;-0.374;2022-09-29T17:31:46;1.40;;;1.30;;
48861;SDS011;34681;49.188;-0.374;2022-09-29T17:34:12;1.00;;;1.00;;
48861;SDS011;34681;49.188;-0.374;2022-09-29T17:36:37;2.67;;;1.30;;
48861;SDS011;34681;49.188;-0.374;2022-09-29T17:39:03;1.90;;;1.40;;
48861;SDS011;34681;49.188;-0.374;2022-09-29T17:41:29;1.17;;;1.17;;
48861;SDS011;34681;49.188;-0.374;2022-09-29T17:43:54;3.73;;;1.80;;
48861;SDS011;34681;49.188;-0.374;2022-09-29T17:46:19;1.50;;;1.40;;
48861;SDS011;34681;49.188;-0.374;2022-09-29T17:48:45;1.80;;;1.70;;
48861;SDS011;34681;49.188;-0.374;2022-09-29T17:51:11;1.90;;;1.80;;
48861;SDS011;34681;49.188;-0.374;2022-09-29T17:53:37;1.63;;;1.53;;